Hopewell Township, New Jersey
Current Conditions -  °F | °C
As of 4:53 PM on Wednesday 17 Dec 2014 (Local Time) from KTTN Reporting Station
Clear Clear  
Wind Chill: 40°   Ceiling: Unl
Heat Index: 46°   Visibility: 10mi
Dew Point: 29°   Wind: 13mph
Humidity: 51%   Direction: 290°WNW
Pressure: 29.9"   Gusts: 29mph
Location:  40.3975°N, 74.7746°W
Report Text: KTTN 172153Z 29011G25KT 10SM CLR 08/M02 A2990 RMK AO2 SLP120 T00781017
Loading
Personal Weather Stations






























Interactive Weather Map New forecast layout! Learn more

10-Day Weather Forecast

Advertisements
Track Severe Weather on mobile